sensor_id;sensor_type;location;lat;lon;timestamp;P1;durP1;ratioP1;P2;durP2;ratioP2
19907;SDS011;10116;53.112;7.356;2023-05-16T00:01:51;6.43;;;5.83;;
19907;SDS011;10116;53.112;7.356;2023-05-16T00:04:17;8.00;;;6.40;;
19907;SDS011;10116;53.112;7.356;2023-05-16T00:06:42;6.87;;;6.27;;
19907;SDS011;10116;53.112;7.356;2023-05-16T00:09:08;7.50;;;6.80;;
19907;SDS011;10116;53.112;7.356;2023-05-16T00:11:34;9.53;;;7.00;;
19907;SDS011;10116;53.112;7.356;2023-05-16T00:13:59;7.20;;;6.60;;
19907;SDS011;10116;53.112;7.356;2023-05-16T00:16:25;8.53;;;7.20;;
19907;SDS011;10116;53.112;7.356;2023-05-16T00:18:53;8.17;;;7.37;;
19907;SDS011;10116;53.112;7.356;2023-05-16T00:21:20;8.13;;;7.43;;
19907;SDS011;10116;53.112;7.356;2023-05-16T00:23:46;8.70;;;7.90;;
19907;SDS011;10116;53.112;7.356;2023-05-16T00:26:12;7.80;;;7.00;;
19907;SDS011;10116;53.112;7.356;2023-05-16T00:28:37;7.53;;;6.80;;
19907;SDS011;10116;53.112;7.356;2023-05-16T00:31:03;9.07;;;8.17;;
19907;SDS011;10116;53.112;7.356;2023-05-16T00:33:28;8.50;;;7.70;;
19907;SDS011;10116;53.112;7.356;2023-05-16T00:35:54;7.83;;;7.00;;
19907;SDS011;10116;53.112;7.356;2023-05-16T00:38:20;11.10;;;10.00;;
19907;SDS011;10116;53.112;7.356;2023-05-16T00:40:45;11.17;;;10.03;;
19907;SDS011;10116;53.112;7.356;2023-05-16T00:43:11;10.80;;;9.80;;
19907;SDS011;10116;53.112;7.356;2023-05-16T00:45:36;12.03;;;10.83;;
19907;SDS011;10116;53.112;7.356;2023-05-16T00:48:02;10.60;;;9.60;;
19907;SDS011;10116;53.112;7.356;2023-05-16T00:50:28;11.40;;;10.27;;
19907;SDS011;10116;53.112;7.356;2023-05-16T00:52:54;12.17;;;10.90;;
19907;SDS011;10116;53.112;7.356;2023-05-16T00:55:20;12.37;;;11.17;;
19907;SDS011;10116;53.112;7.356;2023-05-16T00:57:45;11.83;;;10.63;;
19907;SDS011;10116;53.112;7.356;2023-05-16T01:00:11;12.17;;;10.63;;
19907;SDS011;10116;53.112;7.356;2023-05-16T01:02:39;11.30;;;10.23;;
19907;SDS011;10116;53.112;7.356;2023-05-16T01:05:05;12.30;;;11.10;;
19907;SDS011;10116;53.112;7.356;2023-05-16T01:07:32;12.23;;;11.03;;
19907;SDS011;10116;53.112;7.356;2023-05-16T01:09:59;14.00;;;12.47;;
19907;SDS011;10116;53.112;7.356;2023-05-16T01:12:29;12.53;;;11.33;;
19907;SDS011;10116;53.112;7.356;2023-05-16T01:17:44;14.13;;;12.73;;
19907;SDS011;10116;53.112;7.356;2023-05-16T01:28:43;13.90;;;12.47;;
19907;SDS011;10116;53.112;7.356;2023-05-16T01:31:11;14.27;;;12.50;;
19907;SDS011;10116;53.112;7.356;2023-05-16T01:33:36;16.80;;;14.40;;
19907;SDS011;10116;53.112;7.356;2023-05-16T01:43:41;14.57;;;13.10;;
19907;SDS011;10116;53.112;7.356;2023-05-16T01:46:10;14.40;;;12.90;;
19907;SDS011;10116;53.112;7.356;2023-05-16T01:48:42;14.77;;;13.27;;
19907;SDS011;10116;53.112;7.356;2023-05-16T01:51:17;15.23;;;13.77;;
19907;SDS011;10116;53.112;7.356;2023-05-16T01:53:49;14.60;;;13.20;;
19907;SDS011;10116;53.112;7.356;2023-05-16T01:56:16;13.73;;;12.37;;
19907;SDS011;10116;53.112;7.356;2023-05-16T01:58:43;15.27;;;13.67;;
19907;SDS011;10116;53.112;7.356;2023-05-16T02:01:12;15.67;;;12.83;;
19907;SDS011;10116;53.112;7.356;2023-05-16T02:03:38;14.10;;;12.70;;
19907;SDS011;10116;53.112;7.356;2023-05-16T02:06:03;15.47;;;13.87;;
19907;SDS011;10116;53.112;7.356;2023-05-16T02:08:29;16.83;;;14.90;;
19907;SDS011;10116;53.112;7.356;2023-05-16T02:10:55;13.50;;;12.10;;
19907;SDS011;10116;53.112;7.356;2023-05-16T02:13:21;13.73;;;12.33;;
19907;SDS011;10116;53.112;7.356;2023-05-16T02:15:46;13.73;;;12.30;;
19907;SDS011;10116;53.112;7.356;2023-05-16T02:18:12;14.10;;;12.60;;
19907;SDS011;10116;53.112;7.356;2023-05-16T02:20:37;15.20;;;12.50;;
19907;SDS011;10116;53.112;7.356;2023-05-16T02:23:04;13.43;;;11.80;;
19907;SDS011;10116;53.112;7.356;2023-05-16T02:25:29;13.83;;;12.40;;
19907;SDS011;10116;53.112;7.356;2023-05-16T02:27:55;14.13;;;12.63;;
19907;SDS011;10116;53.112;7.356;2023-05-16T02:30:21;14.00;;;12.50;;
19907;SDS011;10116;53.112;7.356;2023-05-16T02:32:46;12.93;;;11.57;;
19907;SDS011;10116;53.112;7.356;2023-05-16T02:35:13;12.77;;;11.47;;
19907;SDS011;10116;53.112;7.356;2023-05-16T02:37:39;14.53;;;12.13;;
19907;SDS011;10116;53.112;7.356;2023-05-16T02:40:05;12.87;;;11.50;;
19907;SDS011;10116;53.112;7.356;2023-05-16T02:42:31;13.13;;;11.73;;
19907;SDS011;10116;53.112;7.356;2023-05-16T02:44:57;12.17;;;10.70;;
19907;SDS011;10116;53.112;7.356;2023-05-16T02:47:23;12.27;;;10.97;;
19907;SDS011;10116;53.112;7.356;2023-05-16T02:49:49;12.63;;;11.33;;
19907;SDS011;10116;53.112;7.356;2023-05-16T02:52:16;12.73;;;11.30;;
19907;SDS011;10116;53.112;7.356;2023-05-16T02:54:42;12.23;;;11.00;;
19907;SDS011;10116;53.112;7.356;2023-05-16T02:57:08;11.10;;;10.00;;
19907;SDS011;10116;53.112;7.356;2023-05-16T02:59:33;12.30;;;11.03;;
19907;SDS011;10116;53.112;7.356;2023-05-16T03:02:00;11.53;;;10.03;;
19907;SDS011;10116;53.112;7.356;2023-05-16T03:04:26;10.97;;;9.97;;
19907;SDS011;10116;53.112;7.356;2023-05-16T03:06:52;11.23;;;10.23;;
19907;SDS011;10116;53.112;7.356;2023-05-16T03:09:17;10.70;;;9.53;;
19907;SDS011;10116;53.112;7.356;2023-05-16T03:11:44;13.07;;;10.80;;
19907;SDS011;10116;53.112;7.356;2023-05-16T03:14:09;12.17;;;10.87;;
19907;SDS011;10116;53.112;7.356;2023-05-16T03:16:36;11.63;;;10.20;;
19907;SDS011;10116;53.112;7.356;2023-05-16T03:19:02;11.37;;;10.10;;
19907;SDS011;10116;53.112;7.356;2023-05-16T03:21:31;10.03;;;9.03;;
19907;SDS011;10116;53.112;7.356;2023-05-16T03:23:57;11.03;;;9.93;;
19907;SDS011;10116;53.112;7.356;2023-05-16T03:26:23;9.80;;;8.80;;
19907;SDS011;10116;53.112;7.356;2023-05-16T03:28:49;10.97;;;9.33;;
19907;SDS011;10116;53.112;7.356;2023-05-16T03:31:15;10.40;;;9.40;;
19907;SDS011;10116;53.112;7.356;2023-05-16T03:33:41;10.87;;;9.73;;
19907;SDS011;10116;53.112;7.356;2023-05-16T03:36:07;10.80;;;9.70;;
19907;SDS011;10116;53.112;7.356;2023-05-16T03:38:34;13.13;;;9.90;;
19907;SDS011;10116;53.112;7.356;2023-05-16T03:41:00;11.33;;;10.17;;
19907;SDS011;10116;53.112;7.356;2023-05-16T03:43:26;11.50;;;10.30;;
19907;SDS011;10116;53.112;7.356;2023-05-16T03:45:51;12.63;;;11.33;;
19907;SDS011;10116;53.112;7.356;2023-05-16T03:48:17;11.93;;;10.63;;
19907;SDS011;10116;53.112;7.356;2023-05-16T03:50:42;12.33;;;10.83;;
19907;SDS011;10116;53.112;7.356;2023-05-16T03:53:08;12.47;;;9.57;;
19907;SDS011;10116;53.112;7.356;2023-05-16T03:55:34;11.23;;;9.33;;
19907;SDS011;10116;53.112;7.356;2023-05-16T03:58:00;10.93;;;9.87;;
19907;SDS011;10116;53.112;7.356;2023-05-16T04:00:26;10.20;;;9.20;;
19907;SDS011;10116;53.112;7.356;2023-05-16T04:02:52;9.60;;;8.63;;
19907;SDS011;10116;53.112;7.356;2023-05-16T04:05:17;8.97;;;8.17;;
19907;SDS011;10116;53.112;7.356;2023-05-16T04:07:43;9.07;;;8.17;;
19907;SDS011;10116;53.112;7.356;2023-05-16T04:10:09;7.63;;;6.93;;
19907;SDS011;10116;53.112;7.356;2023-05-16T04:12:35;10.20;;;9.00;;
19907;SDS011;10116;53.112;7.356;2023-05-16T04:15:02;8.00;;;7.20;;
19907;SDS011;10116;53.112;7.356;2023-05-16T04:17:28;7.53;;;6.77;;
19907;SDS011;10116;53.112;7.356;2023-05-16T04:19:54;7.83;;;7.13;;
19907;SDS011;10116;53.112;7.356;2023-05-16T04:22:20;9.13;;;7.30;;
19907;SDS011;10116;53.112;7.356;2023-05-16T04:24:46;7.83;;;6.87;;
19907;SDS011;10116;53.112;7.356;2023-05-16T04:27:13;7.90;;;6.70;;
19907;SDS011;10116;53.112;7.356;2023-05-16T04:29:38;7.70;;;6.60;;
19907;SDS011;10116;53.112;7.356;2023-05-16T04:32:04;7.23;;;6.40;;
19907;SDS011;10116;53.112;7.356;2023-05-16T04:34:31;7.80;;;6.97;;
19907;SDS011;10116;53.112;7.356;2023-05-16T04:36:57;6.47;;;5.93;;
19907;SDS011;10116;53.112;7.356;2023-05-16T04:39:23;6.40;;;5.80;;
19907;SDS011;10116;53.112;7.356;2023-05-16T04:41:49;7.23;;;6.47;;
19907;SDS011;10116;53.112;7.356;2023-05-16T04:44:15;6.23;;;5.63;;
19907;SDS011;10116;53.112;7.356;2023-05-16T04:46:41;6.43;;;5.83;;
19907;SDS011;10116;53.112;7.356;2023-05-16T04:49:07;6.53;;;5.80;;
19907;SDS011;10116;53.112;7.356;2023-05-16T04:51:33;6.80;;;5.57;;
19907;SDS011;10116;53.112;7.356;2023-05-16T04:53:59;6.63;;;5.10;;
19907;SDS011;10116;53.112;7.356;2023-05-16T04:56:24;6.77;;;5.90;;
19907;SDS011;10116;53.112;7.356;2023-05-16T04:58:53;6.83;;;5.93;;
19907;SDS011;10116;53.112;7.356;2023-05-16T05:01:19;5.73;;;5.13;;
19907;SDS011;10116;53.112;7.356;2023-05-16T05:03:45;5.67;;;5.10;;
19907;SDS011;10116;53.112;7.356;2023-05-16T05:06:11;5.83;;;4.83;;
19907;SDS011;10116;53.112;7.356;2023-05-16T05:08:36;6.00;;;4.90;;
19907;SDS011;10116;53.112;7.356;2023-05-16T05:11:02;10.27;;;4.80;;
19907;SDS011;10116;53.112;7.356;2023-05-16T05:13:27;5.33;;;4.80;;
19907;SDS011;10116;53.112;7.356;2023-05-16T05:15:53;4.67;;;4.27;;
19907;SDS011;10116;53.112;7.356;2023-05-16T05:18:19;7.20;;;4.97;;
19907;SDS011;10116;53.112;7.356;2023-05-16T05:20:44;6.47;;;4.73;;
19907;SDS011;10116;53.112;7.356;2023-05-16T05:23:10;4.87;;;4.37;;
19907;SDS011;10116;53.112;7.356;2023-05-16T05:25:35;4.97;;;4.30;;
19907;SDS011;10116;53.112;7.356;2023-05-16T05:28:02;4.50;;;3.73;;
19907;SDS011;10116;53.112;7.356;2023-05-16T05:30:28;4.90;;;4.30;;
19907;SDS011;10116;53.112;7.356;2023-05-16T05:32:53;5.27;;;4.27;;
19907;SDS011;10116;53.112;7.356;2023-05-16T05:35:20;5.67;;;4.30;;
19907;SDS011;10116;53.112;7.356;2023-05-16T05:37:45;6.17;;;4.23;;
19907;SDS011;10116;53.112;7.356;2023-05-16T05:40:11;4.90;;;3.57;;
19907;SDS011;10116;53.112;7.356;2023-05-16T05:42:37;4.17;;;3.77;;
19907;SDS011;10116;53.112;7.356;2023-05-16T05:45:02;4.83;;;3.37;;
19907;SDS011;10116;53.112;7.356;2023-05-16T05:47:28;4.07;;;3.77;;
19907;SDS011;10116;53.112;7.356;2023-05-16T05:49:54;5.93;;;3.43;;
19907;SDS011;10116;53.112;7.356;2023-05-16T05:52:20;3.87;;;3.30;;
19907;SDS011;10116;53.112;7.356;2023-05-16T05:54:46;3.23;;;2.93;;
19907;SDS011;10116;53.112;7.356;2023-05-16T05:57:12;4.47;;;3.33;;
19907;SDS011;10116;53.112;7.356;2023-05-16T05:59:38;3.87;;;3.00;;
19907;SDS011;10116;53.112;7.356;2023-05-16T06:02:03;3.83;;;3.43;;
19907;SDS011;10116;53.112;7.356;2023-05-16T06:04:29;3.73;;;3.07;;
19907;SDS011;10116;53.112;7.356;2023-05-16T06:06:55;3.17;;;2.87;;
19907;SDS011;10116;53.112;7.356;2023-05-16T06:09:21;4.23;;;3.37;;
19907;SDS011;10116;53.112;7.356;2023-05-16T06:11:46;3.00;;;2.80;;
19907;SDS011;10116;53.112;7.356;2023-05-16T06:14:13;3.93;;;2.90;;
19907;SDS011;10116;53.112;7.356;2023-05-16T06:16:39;2.70;;;2.50;;
19907;SDS011;10116;53.112;7.356;2023-05-16T06:19:04;4.60;;;2.90;;
19907;SDS011;10116;53.112;7.356;2023-05-16T06:21:30;3.47;;;2.83;;
19907;SDS011;10116;53.112;7.356;2023-05-16T06:23:57;3.30;;;3.00;;
19907;SDS011;10116;53.112;7.356;2023-05-16T06:26:23;3.27;;;2.47;;
19907;SDS011;10116;53.112;7.356;2023-05-16T06:28:48;2.57;;;2.37;;
19907;SDS011;10116;53.112;7.356;2023-05-16T06:31:14;3.53;;;2.60;;
19907;SDS011;10116;53.112;7.356;2023-05-16T06:33:40;3.33;;;2.40;;
19907;SDS011;10116;53.112;7.356;2023-05-16T06:36:06;4.50;;;2.53;;
19907;SDS011;10116;53.112;7.356;2023-05-16T06:38:31;3.23;;;2.00;;
19907;SDS011;10116;53.112;7.356;2023-05-16T06:40:57;3.87;;;2.30;;
19907;SDS011;10116;53.112;7.356;2023-05-16T06:43:23;4.13;;;2.30;;
19907;SDS011;10116;53.112;7.356;2023-05-16T06:45:48;2.60;;;2.40;;
19907;SDS011;10116;53.112;7.356;2023-05-16T06:48:14;4.20;;;2.30;;
19907;SDS011;10116;53.112;7.356;2023-05-16T06:50:40;3.77;;;2.30;;
19907;SDS011;10116;53.112;7.356;2023-05-16T06:53:05;3.47;;;2.30;;
19907;SDS011;10116;53.112;7.356;2023-05-16T06:55:31;2.70;;;1.80;;
19907;SDS011;10116;53.112;7.356;2023-05-16T06:57:58;2.40;;;2.20;;
19907;SDS011;10116;53.112;7.356;2023-05-16T07:00:23;3.27;;;1.90;;
19907;SDS011;10116;53.112;7.356;2023-05-16T07:02:49;3.00;;;2.00;;
19907;SDS011;10116;53.112;7.356;2023-05-16T07:05:15;2.60;;;2.13;;
19907;SDS011;10116;53.112;7.356;2023-05-16T07:07:40;4.93;;;2.43;;
19907;SDS011;10116;53.112;7.356;2023-05-16T07:10:06;2.87;;;2.20;;
19907;SDS011;10116;53.112;7.356;2023-05-16T07:12:34;2.20;;;1.93;;
19907;SDS011;10116;53.112;7.356;2023-05-16T07:15:02;2.37;;;2.10;;
19907;SDS011;10116;53.112;7.356;2023-05-16T07:17:28;3.20;;;2.23;;
19907;SDS011;10116;53.112;7.356;2023-05-16T07:19:54;3.13;;;1.70;;
19907;SDS011;10116;53.112;7.356;2023-05-16T07:22:21;4.73;;;1.73;;
19907;SDS011;10116;53.112;7.356;2023-05-16T07:24:46;4.20;;;2.40;;
19907;SDS011;10116;53.112;7.356;2023-05-16T07:27:12;5.30;;;1.73;;
19907;SDS011;10116;53.112;7.356;2023-05-16T07:29:37;1.73;;;1.63;;
19907;SDS011;10116;53.112;7.356;2023-05-16T07:32:03;1.73;;;1.63;;
19907;SDS011;10116;53.112;7.356;2023-05-16T07:34:29;1.93;;;1.77;;
19907;SDS011;10116;53.112;7.356;2023-05-16T07:36:55;2.50;;;1.80;;
19907;SDS011;10116;53.112;7.356;2023-05-16T07:39:21;3.87;;;1.70;;
19907;SDS011;10116;53.112;7.356;2023-05-16T07:41:46;1.90;;;1.60;;
19907;SDS011;10116;53.112;7.356;2023-05-16T07:44:12;4.03;;;1.60;;
19907;SDS011;10116;53.112;7.356;2023-05-16T07:46:37;3.10;;;1.50;;
19907;SDS011;10116;53.112;7.356;2023-05-16T07:49:03;1.90;;;1.40;;
19907;SDS011;10116;53.112;7.356;2023-05-16T07:51:29;3.43;;;1.90;;
19907;SDS011;10116;53.112;7.356;2023-05-16T07:53:54;2.83;;;1.60;;
19907;SDS011;10116;53.112;7.356;2023-05-16T07:56:20;4.03;;;1.73;;
19907;SDS011;10116;53.112;7.356;2023-05-16T07:58:46;3.83;;;1.87;;
19907;SDS011;10116;53.112;7.356;2023-05-16T08:01:12;1.90;;;1.40;;
19907;SDS011;10116;53.112;7.356;2023-05-16T08:03:38;2.83;;;1.53;;
19907;SDS011;10116;53.112;7.356;2023-05-16T08:06:04;1.60;;;1.50;;
19907;SDS011;10116;53.112;7.356;2023-05-16T08:08:29;1.93;;;1.33;;
19907;SDS011;10116;53.112;7.356;2023-05-16T08:10:55;2.83;;;1.47;;
19907;SDS011;10116;53.112;7.356;2023-05-16T08:13:21;1.70;;;1.20;;
19907;SDS011;10116;53.112;7.356;2023-05-16T08:15:46;1.63;;;1.27;;
19907;SDS011;10116;53.112;7.356;2023-05-16T08:18:12;4.10;;;2.03;;
19907;SDS011;10116;53.112;7.356;2023-05-16T08:20:40;5.77;;;1.90;;
19907;SDS011;10116;53.112;7.356;2023-05-16T08:23:06;2.17;;;1.67;;
19907;SDS011;10116;53.112;7.356;2023-05-16T08:25:32;2.83;;;1.47;;
19907;SDS011;10116;53.112;7.356;2023-05-16T08:27:58;2.60;;;1.10;;
19907;SDS011;10116;53.112;7.356;2023-05-16T08:30:25;4.23;;;1.90;;
19907;SDS011;10116;53.112;7.356;2023-05-16T08:32:51;3.70;;;1.53;;
19907;SDS011;10116;53.112;7.356;2023-05-16T08:35:17;2.93;;;0.93;;
19907;SDS011;10116;53.112;7.356;2023-05-16T08:37:43;3.10;;;1.40;;
19907;SDS011;10116;53.112;7.356;2023-05-16T08:40:09;2.37;;;1.43;;
19907;SDS011;10116;53.112;7.356;2023-05-16T08:42:35;2.30;;;1.63;;
19907;SDS011;10116;53.112;7.356;2023-05-16T08:45:01;1.37;;;1.27;;
19907;SDS011;10116;53.112;7.356;2023-05-16T08:47:29;2.07;;;1.60;;
19907;SDS011;10116;53.112;7.356;2023-05-16T08:49:56;2.40;;;1.40;;
19907;SDS011;10116;53.112;7.356;2023-05-16T08:52:23;2.60;;;1.67;;
19907;SDS011;10116;53.112;7.356;2023-05-16T08:54:53;1.90;;;1.27;;
19907;SDS011;10116;53.112;7.356;2023-05-16T08:57:20;3.83;;;1.43;;
19907;SDS011;10116;53.112;7.356;2023-05-16T08:59:46;2.03;;;1.40;;
19907;SDS011;10116;53.112;7.356;2023-05-16T09:02:11;3.70;;;1.50;;
19907;SDS011;10116;53.112;7.356;2023-05-16T09:04:37;4.10;;;1.47;;
19907;SDS011;10116;53.112;7.356;2023-05-16T09:07:05;1.43;;;1.10;;
19907;SDS011;10116;53.112;7.356;2023-05-16T09:09:30;7.07;;;1.40;;
19907;SDS011;10116;53.112;7.356;2023-05-16T09:11:56;1.63;;;1.03;;
19907;SDS011;10116;53.112;7.356;2023-05-16T09:14:22;2.67;;;1.40;;
19907;SDS011;10116;53.112;7.356;2023-05-16T09:17:03;1.70;;;1.60;;
19907;SDS011;10116;53.112;7.356;2023-05-16T09:19:40;1.50;;;1.40;;
19907;SDS011;10116;53.112;7.356;2023-05-16T09:22:11;1.53;;;1.10;;
19907;SDS011;10116;53.112;7.356;2023-05-16T09:24:40;3.13;;;1.90;;
19907;SDS011;10116;53.112;7.356;2023-05-16T09:27:08;2.77;;;1.83;;
19907;SDS011;10116;53.112;7.356;2023-05-16T09:29:34;2.10;;;1.57;;
19907;SDS011;10116;53.112;7.356;2023-05-16T09:32:04;1.40;;;1.30;;
19907;SDS011;10116;53.112;7.356;2023-05-16T09:34:46;2.90;;;1.50;;
19907;SDS011;10116;53.112;7.356;2023-05-16T09:37:13;2.77;;;1.40;;
19907;SDS011;10116;53.112;7.356;2023-05-16T09:39:49;1.90;;;1.07;;
19907;SDS011;10116;53.112;7.356;2023-05-16T09:42:16;1.23;;;1.13;;
19907;SDS011;10116;53.112;7.356;2023-05-16T09:44:51;1.93;;;0.97;;
19907;SDS011;10116;53.112;7.356;2023-05-16T09:47:18;1.73;;;1.20;;
19907;SDS011;10116;53.112;7.356;2023-05-16T09:49:46;3.50;;;1.40;;
19907;SDS011;10116;53.112;7.356;2023-05-16T09:52:15;1.87;;;1.23;;
19907;SDS011;10116;53.112;7.356;2023-05-16T09:54:41;1.47;;;0.90;;
19907;SDS011;10116;53.112;7.356;2023-05-16T09:57:07;6.63;;;1.40;;
19907;SDS011;10116;53.112;7.356;2023-05-16T09:59:39;2.60;;;1.47;;
19907;SDS011;10116;53.112;7.356;2023-05-16T10:02:05;1.87;;;1.37;;
19907;SDS011;10116;53.112;7.356;2023-05-16T10:04:34;3.90;;;1.37;;
19907;SDS011;10116;53.112;7.356;2023-05-16T10:07:01;3.60;;;1.20;;
19907;SDS011;10116;53.112;7.356;2023-05-16T10:09:28;1.80;;;1.10;;
19907;SDS011;10116;53.112;7.356;2023-05-16T10:11:57;2.87;;;1.07;;
19907;SDS011;10116;53.112;7.356;2023-05-16T10:14:29;1.07;;;0.97;;
19907;SDS011;10116;53.112;7.356;2023-05-16T10:16:59;0.80;;;0.80;;
19907;SDS011;10116;53.112;7.356;2023-05-16T10:19:27;2.50;;;1.00;;
19907;SDS011;10116;53.112;7.356;2023-05-16T10:21:57;6.17;;;0.93;;
19907;SDS011;10116;53.112;7.356;2023-05-16T10:24:28;2.40;;;0.90;;
19907;SDS011;10116;53.112;7.356;2023-05-16T10:26:58;2.53;;;1.20;;
19907;SDS011;10116;53.112;7.356;2023-05-16T10:29:23;2.77;;;1.20;;
19907;SDS011;10116;53.112;7.356;2023-05-16T10:31:50;1.80;;;1.07;;
19907;SDS011;10116;53.112;7.356;2023-05-16T10:34:15;1.93;;;1.00;;
19907;SDS011;10116;53.112;7.356;2023-05-16T10:36:42;1.50;;;1.20;;
19907;SDS011;10116;53.112;7.356;2023-05-16T10:39:09;2.50;;;1.50;;
19907;SDS011;10116;53.112;7.356;2023-05-16T10:41:35;1.60;;;1.17;;
19907;SDS011;10116;53.112;7.356;2023-05-16T10:44:01;2.80;;;1.30;;
19907;SDS011;10116;53.112;7.356;2023-05-16T10:46:28;2.10;;;1.30;;
19907;SDS011;10116;53.112;7.356;2023-05-16T10:48:55;2.77;;;1.10;;
19907;SDS011;10116;53.112;7.356;2023-05-16T10:53:47;2.40;;;1.13;;
19907;SDS011;10116;53.112;7.356;2023-05-16T10:56:16;1.50;;;1.07;;
19907;SDS011;10116;53.112;7.356;2023-05-16T10:58:47;2.53;;;1.30;;
19907;SDS011;10116;53.112;7.356;2023-05-16T11:01:17;1.40;;;0.87;;
19907;SDS011;10116;53.112;7.356;2023-05-16T11:06:25;1.17;;;0.80;;
19907;SDS011;10116;53.112;7.356;2023-05-16T11:16:51;2.30;;;1.40;;
19907;SDS011;10116;53.112;7.356;2023-05-16T11:19:30;3.50;;;1.20;;
19907;SDS011;10116;53.112;7.356;2023-05-16T11:24:56;1.70;;;1.13;;
19907;SDS011;10116;53.112;7.356;2023-05-16T11:27:24;1.90;;;1.30;;
19907;SDS011;10116;53.112;7.356;2023-05-16T11:29:57;5.60;;;1.17;;
19907;SDS011;10116;53.112;7.356;2023-05-16T11:32:45;1.77;;;0.83;;
19907;SDS011;10116;53.112;7.356;2023-05-16T11:35:13;5.00;;;1.30;;
19907;SDS011;10116;53.112;7.356;2023-05-16T11:37:41;1.73;;;1.23;;
19907;SDS011;10116;53.112;7.356;2023-05-16T11:40:08;2.03;;;1.00;;
19907;SDS011;10116;53.112;7.356;2023-05-16T11:42:36;1.07;;;0.97;;
19907;SDS011;10116;53.112;7.356;2023-05-16T11:47:30;1.80;;;1.27;;
19907;SDS011;10116;53.112;7.356;2023-05-16T11:49:59;2.60;;;1.40;;
19907;SDS011;10116;53.112;7.356;2023-05-16T11:52:24;1.50;;;1.00;;
19907;SDS011;10116;53.112;7.356;2023-05-16T11:54:51;1.53;;;0.90;;
19907;SDS011;10116;53.112;7.356;2023-05-16T11:57:17;1.43;;;0.93;;
19907;SDS011;10116;53.112;7.356;2023-05-16T11:59:45;3.47;;;1.10;;
19907;SDS011;10116;53.112;7.356;2023-05-16T12:02:11;3.80;;;1.00;;
19907;SDS011;10116;53.112;7.356;2023-05-16T12:04:36;1.00;;;0.90;;
19907;SDS011;10116;53.112;7.356;2023-05-16T12:07:02;2.30;;;1.07;;
19907;SDS011;10116;53.112;7.356;2023-05-16T12:09:29;1.87;;;1.27;;
19907;SDS011;10116;53.112;7.356;2023-05-16T12:11:55;1.43;;;1.00;;
19907;SDS011;10116;53.112;7.356;2023-05-16T12:14:21;2.20;;;0.77;;
19907;SDS011;10116;53.112;7.356;2023-05-16T12:16:47;2.70;;;1.20;;
19907;SDS011;10116;53.112;7.356;2023-05-16T12:19:13;2.03;;;0.90;;
19907;SDS011;10116;53.112;7.356;2023-05-16T12:21:39;1.60;;;0.80;;
19907;SDS011;10116;53.112;7.356;2023-05-16T12:24:08;3.13;;;1.10;;
19907;SDS011;10116;53.112;7.356;2023-05-16T12:26:37;1.93;;;1.07;;
19907;SDS011;10116;53.112;7.356;2023-05-16T12:29:04;2.93;;;1.30;;
19907;SDS011;10116;53.112;7.356;2023-05-16T12:31:39;3.27;;;1.17;;
19907;SDS011;10116;53.112;7.356;2023-05-16T12:34:13;1.97;;;0.97;;
19907;SDS011;10116;53.112;7.356;2023-05-16T12:36:43;1.27;;;1.00;;
19907;SDS011;10116;53.112;7.356;2023-05-16T12:39:10;3.03;;;1.43;;
19907;SDS011;10116;53.112;7.356;2023-05-16T12:41:41;3.33;;;1.17;;
19907;SDS011;10116;53.112;7.356;2023-05-16T12:44:11;2.80;;;1.10;;
19907;SDS011;10116;53.112;7.356;2023-05-16T12:46:45;3.13;;;1.70;;
19907;SDS011;10116;53.112;7.356;2023-05-16T12:49:12;3.50;;;1.40;;
19907;SDS011;10116;53.112;7.356;2023-05-16T12:51:38;1.83;;;1.27;;
19907;SDS011;10116;53.112;7.356;2023-05-16T12:54:11;6.87;;;1.30;;
19907;SDS011;10116;53.112;7.356;2023-05-16T12:56:38;2.40;;;0.90;;
19907;SDS011;10116;53.112;7.356;2023-05-16T12:59:04;1.67;;;1.20;;
19907;SDS011;10116;53.112;7.356;2023-05-16T13:01:30;2.97;;;1.40;;
19907;SDS011;10116;53.112;7.356;2023-05-16T13:03:55;3.60;;;2.00;;
19907;SDS011;10116;53.112;7.356;2023-05-16T13:06:21;2.43;;;1.23;;
19907;SDS011;10116;53.112;7.356;2023-05-16T13:08:47;1.90;;;1.60;;
19907;SDS011;10116;53.112;7.356;2023-05-16T13:11:12;4.63;;;1.60;;
19907;SDS011;10116;53.112;7.356;2023-05-16T13:13:38;7.73;;;1.83;;
19907;SDS011;10116;53.112;7.356;2023-05-16T13:16:04;4.60;;;1.77;;
19907;SDS011;10116;53.112;7.356;2023-05-16T13:18:30;4.20;;;1.70;;
19907;SDS011;10116;53.112;7.356;2023-05-16T13:20:55;2.67;;;1.70;;
19907;SDS011;10116;53.112;7.356;2023-05-16T13:23:21;2.07;;;1.70;;
19907;SDS011;10116;53.112;7.356;2023-05-16T13:25:47;3.30;;;1.73;;
19907;SDS011;10116;53.112;7.356;2023-05-16T13:28:12;3.73;;;1.80;;
19907;SDS011;10116;53.112;7.356;2023-05-16T13:30:38;3.40;;;1.80;;
19907;SDS011;10116;53.112;7.356;2023-05-16T13:33:04;2.40;;;1.60;;
19907;SDS011;10116;53.112;7.356;2023-05-16T13:35:29;2.90;;;1.70;;
19907;SDS011;10116;53.112;7.356;2023-05-16T13:37:55;2.10;;;1.80;;
19907;SDS011;10116;53.112;7.356;2023-05-16T13:40:20;2.20;;;1.90;;
19907;SDS011;10116;53.112;7.356;2023-05-16T13:42:46;3.77;;;1.80;;
19907;SDS011;10116;53.112;7.356;2023-05-16T13:45:13;2.77;;;1.97;;
19907;SDS011;10116;53.112;7.356;2023-05-16T13:47:38;2.20;;;1.70;;
19907;SDS011;10116;53.112;7.356;2023-05-16T13:50:04;3.40;;;1.93;;
19907;SDS011;10116;53.112;7.356;2023-05-16T13:52:34;6.00;;;2.47;;
19907;SDS011;10116;53.112;7.356;2023-05-16T13:55:00;5.13;;;1.93;;
19907;SDS011;10116;53.112;7.356;2023-05-16T13:57:25;4.57;;;1.87;;
19907;SDS011;10116;53.112;7.356;2023-05-16T13:59:51;2.53;;;2.00;;
19907;SDS011;10116;53.112;7.356;2023-05-16T14:02:17;3.40;;;2.30;;
19907;SDS011;10116;53.112;7.356;2023-05-16T14:04:43;3.80;;;2.70;;
19907;SDS011;10116;53.112;7.356;2023-05-16T14:07:09;3.73;;;2.63;;
19907;SDS011;10116;53.112;7.356;2023-05-16T14:09:34;3.10;;;2.20;;
19907;SDS011;10116;53.112;7.356;2023-05-16T14:12:03;3.80;;;2.30;;
19907;SDS011;10116;53.112;7.356;2023-05-16T14:14:31;5.13;;;2.80;;
19907;SDS011;10116;53.112;7.356;2023-05-16T14:16:57;4.63;;;2.70;;
19907;SDS011;10116;53.112;7.356;2023-05-16T14:19:23;6.20;;;2.80;;
19907;SDS011;10116;53.112;7.356;2023-05-16T14:21:49;3.90;;;2.90;;
19907;SDS011;10116;53.112;7.356;2023-05-16T14:24:14;6.47;;;3.10;;
19907;SDS011;10116;53.112;7.356;2023-05-16T14:26:40;3.47;;;2.43;;
19907;SDS011;10116;53.112;7.356;2023-05-16T14:29:05;5.77;;;2.83;;
19907;SDS011;10116;53.112;7.356;2023-05-16T14:31:31;2.73;;;2.50;;
19907;SDS011;10116;53.112;7.356;2023-05-16T14:33:57;4.30;;;2.97;;
19907;SDS011;10116;53.112;7.356;2023-05-16T14:36:23;3.70;;;2.43;;
19907;SDS011;10116;53.112;7.356;2023-05-16T14:38:49;2.50;;;2.30;;
19907;SDS011;10116;53.112;7.356;2023-05-16T14:41:15;3.97;;;2.90;;
19907;SDS011;10116;53.112;7.356;2023-05-16T14:43:41;10.20;;;3.13;;
19907;SDS011;10116;53.112;7.356;2023-05-16T14:46:08;3.23;;;2.43;;
19907;SDS011;10116;53.112;7.356;2023-05-16T14:48:33;6.33;;;2.63;;
19907;SDS011;10116;53.112;7.356;2023-05-16T14:50:59;3.20;;;2.53;;
19907;SDS011;10116;53.112;7.356;2023-05-16T14:53:25;5.33;;;2.73;;
19907;SDS011;10116;53.112;7.356;2023-05-16T14:55:50;3.53;;;2.70;;
19907;SDS011;10116;53.112;7.356;2023-05-16T14:58:16;3.33;;;2.90;;
19907;SDS011;10116;53.112;7.356;2023-05-16T15:00:41;3.60;;;2.60;;
19907;SDS011;10116;53.112;7.356;2023-05-16T15:03:07;3.73;;;3.20;;
19907;SDS011;10116;53.112;7.356;2023-05-16T15:05:33;6.50;;;2.60;;
19907;SDS011;10116;53.112;7.356;2023-05-16T15:07:58;4.10;;;2.90;;
19907;SDS011;10116;53.112;7.356;2023-05-16T15:10:24;3.43;;;2.90;;
19907;SDS011;10116;53.112;7.356;2023-05-16T15:12:50;3.20;;;2.60;;
19907;SDS011;10116;53.112;7.356;2023-05-16T15:15:15;3.20;;;2.70;;
19907;SDS011;10116;53.112;7.356;2023-05-16T15:17:41;2.57;;;2.30;;